Time;durP1;ratioP1;P1;durP2;ratioP2;P2;SDS_P1;SDS_P2;PMS_P1;PMS_P2;Temp;Humidity;BMP_temperature;BMP_pressure;BME280_temperature;BME280_humidity;BME280_pressure;Samples;Min_cycle;Max_cycle;Signal;HPM_P1;HPM_P2
2022/05/19 00:01:16;;;;;;;6.20;3.13;;;;;;;8.07;50.37;99780.06;6124364;23;20022;-79
2022/05/19 00:03:42;;;;;;;10.63;3.33;;;;;;;7.86;50.32;99744.63;6123693;23;20314;-79
2022/05/19 00:06:09;;;;;;;10.10;3.90;;;;;;;8.06;50.71;99785.25;6123621;23;20022;-81
2022/05/19 00:08:36;;;;;;;12.07;4.75;;;;;;;7.78;50.80;99730.78;6073439;23;20021;-80
2022/05/19 00:11:06;;;;;;;11.15;3.95;;;;;;;8.09;51.18;99780.91;6097849;23;20018;-80
2022/05/19 00:13:33;;;;;;;9.65;3.85;;;;;;;8.15;51.25;99777.50;6073640;23;20032;-78
2022/05/19 00:15:59;;;;;;;8.32;4.55;;;;;;;8.20;51.43;99783.50;6123105;23;20070;-79
2022/05/19 00:18:25;;;;;;;6.72;3.30;;;;;;;8.20;51.66;99756.75;6073605;23;20025;-79
2022/05/19 00:20:52;;;;;;;8.60;3.80;;;;;;;8.24;51.54;99759.34;6105965;23;20033;-80
2022/05/19 00:23:18;;;;;;;10.60;3.95;;;;;;;8.33;51.62;99765.38;6109705;23;20042;-78
2022/05/19 00:25:44;;;;;;;9.52;3.22;;;;;;;8.33;51.75;99766.25;6126018;23;20337;-79
2022/05/19 00:28:11;;;;;;;5.30;3.05;;;;;;;8.33;51.71;99758.47;6123456;23;20013;-77
2022/05/19 00:30:41;;;;;;;6.75;3.17;;;;;;;7.87;51.77;99671.22;6156965;22;20030;-80
2022/05/19 00:33:19;;;;;;;4.95;3.08;;;;;;;8.21;51.74;99727.38;6233250;22;20020;-81
2022/05/19 00:35:46;;;;;;;5.50;2.90;;;;;;;8.50;51.67;99767.97;6132985;22;20020;-81
2022/05/19 00:38:16;;;;;;;10.13;3.63;;;;;;;8.10;51.85;99698.88;6248530;22;20020;-78
2022/05/19 00:40:54;;;;;;;5.80;3.10;;;;;;;8.52;51.98;99754.16;6228757;22;20016;31
2022/05/19 00:43:30;;;;;;;6.55;3.28;;;;;;;8.40;51.97;99726.50;6160497;23;20033;-79
2022/05/19 00:46:01;;;;;;;10.38;3.58;;;;;;;8.56;52.06;99744.66;6129084;23;20471;-81
2022/05/19 00:48:40;;;;;;;9.75;3.53;;;;;;;8.36;51.97;99722.16;6108308;23;20021;-79
2022/05/19 00:51:08;;;;;;;8.25;3.20;;;;;;;8.50;52.00;99742.03;6139499;23;20024;-77
2022/05/19 00:53:49;;;;;;;8.80;3.25;;;;;;;8.56;52.04;99762.78;6113116;23;20369;-81
2022/05/19 00:56:21;;;;;;;5.63;3.07;;;;;;;8.57;52.19;99752.44;6153519;23;20028;-80
2022/05/19 00:59:09;;;;;;;9.88;3.05;;;;;;;8.56;52.17;99749.81;6102409;23;20510;-80
2022/05/19 01:01:42;;;;;;;8.70;3.17;;;;;;;8.57;52.21;99748.97;6151581;23;20037;-79
2022/05/19 01:04:43;;;;;;;7.10;3.33;;;;;;;8.75;52.46;99755.84;6127521;23;20026;-80
2022/05/19 01:07:16;;;;;;;11.57;3.75;;;;;;;8.82;52.32;99767.09;6027810;23;20017;-79
2022/05/19 01:09:43;;;;;;;8.43;3.50;;;;;;;8.76;52.31;99736.84;6127543;23;20041;-79
2022/05/19 01:12:10;;;;;;;7.63;3.58;;;;;;;8.89;52.14;99759.28;6152224;23;20013;-79
2022/05/19 01:14:37;;;;;;;7.20;3.92;;;;;;;8.77;52.03;99727.31;6126752;23;20024;-80
2022/05/19 01:17:06;;;;;;;5.95;3.20;;;;;;;8.92;51.77;99763.63;6127112;23;20017;-80
2022/05/19 01:19:34;;;;;;;7.82;3.10;;;;;;;8.84;52.10;99755.81;6102422;23;20017;-82
2022/05/19 01:22:35;;;;;;;8.00;3.78;;;;;;;8.75;52.21;99755.84;6152186;23;20431;-78
2022/05/19 01:25:12;;;;;;;5.70;3.00;;;;;;;8.65;52.23;99754.13;6106134;23;20525;-80
2022/05/19 01:27:39;;;;;;;8.68;3.40;;;;;;;8.61;52.28;99766.25;6153891;23;20096;-80
2022/05/19 01:30:09;;;;;;;7.57;3.17;;;;;;;8.60;52.79;99761.94;6128725;23;20029;-79
2022/05/19 01:32:35;;;;;;;4.60;3.08;;;;;;;8.41;52.86;99736.00;6128311;23;20431;-81
2022/05/19 01:35:02;;;;;;;5.40;2.63;;;;;;;8.55;52.76;99748.09;6128224;23;20021;-79
2022/05/19 01:37:29;;;;;;;5.85;2.97;;;;;;;8.65;52.95;99754.13;6080222;23;20352;-78
2022/05/19 01:40:18;;;;;;;4.43;2.78;;;;;;;8.75;53.00;99755.84;6132995;23;20021;-78
2022/05/19 01:42:52;;;;;;;6.13;2.80;;;;;;;8.84;52.90;99753.22;6127750;23;20022;-78
2022/05/19 01:45:46;;;;;;;6.85;2.75;;;;;;;8.92;52.70;99755.81;6128450;23;20104;-79
2022/05/19 01:48:32;;;;;;;3.88;2.70;;;;;;;8.99;52.83;99739.34;6154757;23;20017;-79
2022/05/19 01:51:06;;;;;;;5.75;2.42;;;;;;;9.15;52.38;99757.50;6128829;23;20459;-79
2022/05/19 01:54:10;;;;;;;4.90;2.42;;;;;;;9.22;52.13;99760.91;6104364;23;20017;-79
2022/05/19 01:57:01;;;;;;;7.72;2.70;;;;;;;9.30;51.96;99757.41;6065490;23;20024;-83
2022/05/19 01:59:48;;;;;;;4.70;2.13;;;;;;;9.38;51.97;99756.53;6155654;23;20063;-80
2022/05/19 02:02:32;;;;;;;2.20;2.00;;;;;;;9.50;51.56;99757.31;6130210;23;20026;-80
2022/05/19 02:05:37;;;;;;;5.22;2.47;;;;;;;9.57;51.53;99745.16;6140028;23;20025;-79
2022/05/19 02:08:07;;;;;;;6.28;2.40;;;;;;;9.68;51.40;99744.22;6147499;23;20021;-76
2022/05/19 02:10:40;;;;;;;4.93;2.67;;;;;;;9.67;50.98;99737.31;6099846;23;20025;-79
2022/05/19 02:13:06;;;;;;;4.95;2.40;;;;;;;9.75;51.29;99738.13;6125570;23;20028;-80
2022/05/19 02:15:37;;;;;;;4.32;2.58;;;;;;;9.78;51.06;99719.91;6181380;23;20097;-80
2022/05/19 02:18:03;;;;;;;4.93;2.30;;;;;;;9.98;51.08;99732.75;6132146;23;20013;-82
2022/05/19 02:20:31;;;;;;;4.15;2.40;;;;;;;9.88;50.72;99700.78;6156456;23;20005;-79
2022/05/19 02:22:58;;;;;;;3.80;2.33;;;;;;;10.03;50.85;99722.34;6151843;23;20025;-83
2022/05/19 02:25:28;;;;;;;3.63;2.20;;;;;;;10.26;50.52;99737.75;6083530;23;20447;-79
2022/05/19 02:28:00;;;;;;;4.18;2.38;;;;;;;10.38;50.36;99742.84;6130126;23;20018;-79
2022/05/19 02:30:31;;;;;;;4.88;2.13;;;;;;;10.44;50.25;99730.69;6156713;23;20378;-83
2022/05/19 02:32:57;;;;;;;6.10;2.33;;;;;;;10.63;50.52;99739.19;6132219;23;20065;-81
2022/05/19 02:35:24;;;;;;;4.82;2.30;;;;;;;10.64;49.99;99707.91;6158598;23;20021;-79
2022/05/19 02:37:51;;;;;;;4.28;2.40;;;;;;;10.98;49.53;99738.81;6156697;23;20024;-80
2022/05/19 02:40:20;;;;;;;7.75;2.40;;;;;;;11.22;49.40;99736.78;6160003;23;20017;-81
2022/05/19 02:42:47;;;;;;;7.50;3.65;;;;;;;11.47;49.19;99741.69;6111040;23;20076;-82
2022/05/19 02:45:16;;;;;;;8.95;3.10;;;;;;;11.52;48.72;99718.16;6129872;23;20021;-81
2022/05/19 02:47:42;;;;;;;5.38;2.33;;;;;;;11.75;48.29;99736.06;6106218;23;20032;-79
2022/05/19 02:50:09;;;;;;;3.10;2.30;;;;;;;11.91;48.42;99744.50;6082584;23;20100;-79
2022/05/19 02:52:36;;;;;;;3.72;2.40;;;;;;;11.84;48.03;99729.84;6134448;23;20020;-78
2022/05/19 02:55:02;;;;;;;5.60;2.20;;;;;;;11.93;47.68;99729.72;6159827;23;20068;-79
2022/05/19 02:57:29;;;;;;;4.50;2.33;;;;;;;11.78;47.60;99704.72;6104141;23;20025;-80
2022/05/19 02:59:55;;;;;;;4.10;2.50;;;;;;;11.80;47.70;99712.53;6129061;23;20108;-79
2022/05/19 03:02:21;;;;;;;6.47;2.38;;;;;;;11.86;47.33;99712.44;6132561;23;20025;-81
2022/05/19 03:04:47;;;;;;;6.28;2.22;;;;;;;11.92;47.36;99727.97;6133634;23;20018;-81
2022/05/19 03:07:13;;;;;;;4.85;2.05;;;;;;;11.95;47.16;99701.88;6161048;23;20192;-80
2022/05/19 03:09:42;;;;;;;4.72;2.13;;;;;;;11.96;46.81;99693.16;6113336;23;20025;-83
2022/05/19 03:12:09;;;;;;;5.97;2.60;;;;;;;12.03;46.81;99681.75;6131659;23;20076;-81
2022/05/19 03:14:36;;;;;;;4.80;2.70;;;;;;;12.04;46.99;99683.47;6134133;23;20017;-82
2022/05/19 03:17:09;;;;;;;4.38;2.70;;;;;;;11.51;46.65;99601.78;6129945;23;20021;-80
2022/05/19 03:19:36;;;;;;;3.95;2.30;;;;;;;12.15;47.08;99700.69;6132704;23;20025;-82
2022/05/19 03:22:03;;;;;;;4.32;2.25;;;;;;;12.24;46.57;99716.22;6107362;23;20021;-81
2022/05/19 03:24:30;;;;;;;4.72;1.92;;;;;;;12.14;46.29;99688.53;6108196;23;20447;-78
2022/05/19 03:26:56;;;;;;;6.38;2.20;;;;;;;12.25;46.30;99678.78;6109099;23;20021;-79
2022/05/19 03:29:22;;;;;;;2.13;1.90;;;;;;;12.54;45.75;99695.66;6134261;23;20086;-80
2022/05/19 03:31:48;;;;;;;4.45;1.80;;;;;;;12.78;45.87;99716.97;6110647;23;20021;-80
2022/05/19 03:34:17;;;;;;;2.75;1.70;;;;;;;12.96;45.54;99703.53;6139227;23;20021;-80
2022/05/19 03:36:49;;;;;;;3.50;2.10;;;;;;;13.01;45.20;99674.75;6144051;23;20017;-78
2022/05/19 03:39:18;;;;;;;6.88;1.98;;;;;;;13.30;44.38;99675.84;6091743;23;20013;-82
2022/05/19 03:41:44;;;;;;;1.88;1.65;;;;;;;13.45;44.31;99690.38;6161246;23;20018;-80
2022/05/19 03:44:12;;;;;;;6.85;2.15;;;;;;;13.58;44.30;99690.06;6109521;23;20445;-78
2022/05/19 03:46:38;;;;;;;3.35;2.00;;;;;;;13.69;43.90;99704.63;6115697;23;20017;-82
2022/05/19 03:49:04;;;;;;;4.15;1.90;;;;;;;13.53;43.72;99657.06;6117268;23;20117;-81
2022/05/19 03:51:33;;;;;;;3.30;2.00;;;;;;;13.44;43.75;99635.53;6116970;23;20077;-81
2022/05/19 03:53:59;;;;;;;5.18;2.15;;;;;;;13.67;43.52;99633.22;6142696;23;20017;-80
2022/05/19 03:56:26;;;;;;;3.40;2.00;;;;;;;14.18;42.98;99690.41;6121150;23;20037;-78
2022/05/19 03:58:52;;;;;;;2.08;1.88;;;;;;;14.38;43.02;99703.81;6120744;23;20125;-79
2022/05/19 04:01:20;;;;;;;5.30;2.20;;;;;;;14.57;42.70;99695.47;6169915;23;20391;-81
2022/05/19 04:03:47;;;;;;;2.47;1.83;;;;;;;14.60;42.21;99675.28;6143394;23;20070;-80
2022/05/19 04:06:13;;;;;;;2.17;1.85;;;;;;;14.82;41.49;99684.38;6116577;23;20103;-79
2022/05/19 04:08:40;;;;;;;2.70;2.20;;;;;;;15.02;41.80;99684.66;6117236;23;20029;-80
2022/05/19 04:11:07;;;;;;;5.45;2.03;;;;;;;15.21;41.21;99699.81;6116050;23;20463;-79
2022/05/19 04:13:33;;;;;;;3.70;1.85;;;;;;;15.05;41.14;99684.56;6139765;23;20101;-80
2022/05/19 04:15:58;;;;;;;4.25;1.77;;;;;;;15.01;40.97;99682.94;6141197;23;20017;-79
2022/05/19 04:18:25;;;;;;;3.50;2.03;;;;;;;14.91;41.11;99702.41;6116498;23;20101;-81
2022/05/19 04:20:51;;;;;;;4.40;1.70;;;;;;;14.63;41.02;99676.13;6133951;23;20079;-79
2022/05/19 04:23:18;;;;;;;3.88;1.90;;;;;;;14.56;40.78;99693.75;6102436;23;20472;-80
2022/05/19 04:25:44;;;;;;;2.92;2.00;;;;;;;14.60;40.72;99711.97;6127757;23;20021;-81
2022/05/19 04:28:10;;;;;;;3.42;2.10;;;;;;;14.48;40.95;99700.94;6106366;23;20100;-80
2022/05/19 04:30:37;;;;;;;4.18;1.90;;;;;;;14.22;40.98;99678.97;6133568;23;20021;-77
2022/05/19 04:33:06;;;;;;;6.00;1.92;;;;;;;14.27;41.00;99717.19;6159599;23;20009;-77
2022/05/19 04:35:32;;;;;;;2.08;1.63;;;;;;;14.01;41.01;99692.53;6130006;23;20017;-79
2022/05/19 04:38:00;;;;;;;3.80;1.67;;;;;;;14.10;41.74;99720.22;6131896;23;20512;-79
2022/05/19 04:40:27;;;;;;;1.58;1.48;;;;;;;14.25;42.06;99713.75;6153371;23;20017;-79
2022/05/19 04:42:56;;;;;;;1.77;1.65;;;;;;;14.28;42.29;99697.09;6126490;23;20025;-80
2022/05/19 04:45:22;;;;;;;4.45;1.80;;;;;;;14.62;42.05;99719.78;6127273;23;20105;-81
2022/05/19 04:47:48;;;;;;;1.90;1.70;;;;;;;14.77;42.31;99710.69;6103002;23;20017;-82
2022/05/19 04:50:15;;;;;;;2.58;1.80;;;;;;;14.87;41.68;99714.75;6128754;23;20027;-79
2022/05/19 04:52:42;;;;;;;2.28;1.63;;;;;;;14.96;41.54;99692.69;6104327;23;20020;-80
2022/05/19 04:55:12;;;;;;;2.72;1.58;;;;;;;14.89;41.43;99699.00;6057242;23;20116;-79
2022/05/19 04:57:40;;;;;;;4.97;1.67;;;;;;;14.96;41.42;99725.91;6104514;23;20026;-79
2022/05/19 05:00:09;;;;;;;3.22;1.77;;;;;;;14.82;41.64;99723.66;6103579;23;20020;-78
2022/05/19 05:02:36;;;;;;;2.80;1.83;;;;;;;14.63;41.60;99724.13;6105160;23;20020;-80
2022/05/19 05:05:04;;;;;;;3.47;1.98;;;;;;;14.55;41.78;99715.59;6130317;23;20059;-80
2022/05/19 05:07:30;;;;;;;5.30;2.45;;;;;;;14.48;41.94;99730.63;6156859;23;20088;-79
2022/05/19 05:09:59;;;;;;;3.75;1.88;;;;;;;14.34;42.05;99715.28;6107667;23;20344;-82
2022/05/19 05:12:26;;;;;;;2.47;2.10;;;;;;;14.46;42.16;99729.81;6133490;23;20418;-80
2022/05/19 05:14:55;;;;;;;3.35;2.05;;;;;;;14.46;42.13;99735.03;6132236;23;20099;-84
2022/05/19 05:17:21;;;;;;;3.35;2.08;;;;;;;13.83;42.16;99638.06;6108533;23;20024;-81
2022/05/19 05:19:48;;;;;;;4.07;2.10;;;;;;;14.29;42.45;99744.19;6105698;23;20040;-78
2022/05/19 05:22:16;;;;;;;5.45;2.17;;;;;;;14.07;43.01;99746.44;6160582;23;20045;-79
2022/05/19 05:24:42;;;;;;;6.78;2.70;;;;;;;13.89;43.47;99739.06;6164450;23;20080;-78
2022/05/19 05:27:08;;;;;;;3.70;2.38;;;;;;;13.76;44.00;99725.41;6161564;23;20028;-80
2022/05/19 05:29:35;;;;;;;4.50;3.00;;;;;;;13.94;44.44;99740.66;6132095;23;20024;-79
2022/05/19 05:32:02;;;;;;;5.28;2.55;;;;;;;13.79;45.30;99694.78;6109009;23;20074;-78
2022/05/19 05:34:29;;;;;;;6.05;2.45;;;;;;;13.93;45.71;99699.69;6135963;23;20398;-78
2022/05/19 05:36:55;;;;;;;5.65;3.17;;;;;;;14.23;45.97;99725.16;6139023;23;20494;-81
2022/05/19 05:39:29;;;;;;;5.22;2.80;;;;;;;14.07;45.88;99704.59;6162785;23;20043;-79
2022/05/19 05:41:57;;;;;;;5.25;3.10;;;;;;;14.21;46.24;99725.19;6161703;23;20073;-80
2022/05/19 05:44:23;;;;;;;5.50;3.42;;;;;;;14.16;46.22;99703.50;6145733;23;20066;-83
2022/05/19 05:46:49;;;;;;;5.80;2.67;;;;;;;14.57;45.94;99743.44;6135378;23;20471;-82
2022/05/19 05:49:29;;;;;;;6.60;2.90;;;;;;;14.52;45.58;99697.34;6110579;23;20028;-78
2022/05/19 05:51:59;;;;;;;3.85;2.45;;;;;;;14.76;45.63;99703.75;6110246;23;20462;-81
2022/05/19 05:54:31;;;;;;;4.90;2.60;;;;;;;14.55;45.54;99673.72;6160010;23;20037;-79
2022/05/19 05:57:00;;;;;;;;;;;;;;;15.10;45.32;99726.34;6134379;23;20022;-78
2022/05/19 05:59:26;;;;;;;6.03;3.10;;;;;;;15.19;45.29;99704.25;6156558;23;19928;-79
2022/05/19 06:01:53;;;;;;;4.50;3.05;;;;;;;15.25;45.18;99721.56;6107586;23;20022;-78
2022/05/19 06:04:19;;;;;;;7.78;2.92;;;;;;;15.13;45.04;99717.53;6158978;23;20013;-78
2022/05/19 06:06:50;;;;;;;7.05;2.95;;;;;;;15.04;45.09;99724.78;6141089;23;20021;-78
2022/05/19 06:09:27;;;;;;;5.43;2.70;;;;;;;14.50;45.57;99639.81;6116640;23;20021;-78
2022/05/19 06:12:09;;;;;;;6.22;2.95;;;;;;;15.10;46.24;99734.22;6115564;23;20025;-80
2022/05/19 06:14:44;;;;;;;5.40;2.40;;;;;;;15.46;45.78;99722.69;6139332;23;20096;-78
2022/05/19 06:17:30;;;;;;;3.22;2.00;;;;;;;14.99;45.49;99655.91;6160406;23;20036;-79
2022/05/19 06:20:23;;;;;;;4.55;2.60;;;;;;;14.75;45.90;99634.75;6143021;23;20017;-80
2022/05/19 06:23:28;;;;;;;4.03;2.20;;;;;;;15.09;46.13;99690.56;6147584;23;20021;-81
2022/05/19 06:29:10;;;;;;;6.15;2.17;;;;;;;15.45;45.48;99710.47;6168625;23;20021;-79
2022/05/19 06:32:08;;;;;;;4.05;2.40;;;;;;;15.01;45.30;99613.94;6145943;23;20462;-77
2022/05/19 06:35:34;;;;;;;;;;;;;;;;;;;;;
2022/05/19 06:38:34;;;;;;;3.60;2.42;;;;;;;15.82;45.26;99715.44;6159028;23;20024;-80
2022/05/19 06:43:52;;;;;;;2.95;2.10;;;;;;;16.15;45.11;99664.56;6164302;23;20017;-78
2022/05/19 06:46:18;;;;;;;4.15;2.45;;;;;;;16.75;44.34;99697.50;6160915;23;20024;-78
2022/05/19 06:48:46;;;;;;;3.65;2.10;;;;;;;17.16;44.03;99682.84;6160242;23;20077;-77
2022/05/19 06:51:12;;;;;;;4.90;2.25;;;;;;;17.54;42.88;99687.53;6136775;23;20017;-78
2022/05/19 06:53:40;;;;;;;2.75;1.90;;;;;;;17.42;42.12;99649.44;6135068;23;20017;-79
2022/05/19 06:56:10;;;;;;;3.30;2.38;;;;;;;17.25;41.92;99663.22;6130932;23;20367;-82
2022/05/19 06:58:37;;;;;;;3.05;2.17;;;;;;;16.98;42.56;99683.53;6133350;23;20021;-78
2022/05/19 07:01:03;;;;;;;3.17;2.15;;;;;;;16.68;42.10;99670.59;6109436;23;20017;-78
2022/05/19 07:03:29;;;;;;;3.90;2.15;;;;;;;16.51;42.54;99666.78;6135417;23;20013;-79
2022/05/19 07:05:55;;;;;;;4.90;2.45;;;;;;;16.81;42.84;99702.53;6134671;23;20022;-80
2022/05/19 07:08:21;;;;;;;4.22;3.00;;;;;;;16.91;43.18;99680.25;6130805;23;20021;-78
2022/05/19 07:10:47;;;;;;;38.40;25.88;;;;;;;17.05;42.39;99699.94;6155792;23;20041;-79
2022/05/19 07:13:13;;;;;;;31.40;21.45;;;;;;;17.16;42.35;99713.56;6128792;23;20148;-78
2022/05/19 07:15:40;;;;;;;8.82;5.97;;;;;;;17.09;42.19;99715.56;6130711;23;20013;-80
2022/05/19 07:18:08;;;;;;;5.25;2.70;;;;;;;17.05;42.27;99719.22;6133502;23;20459;-82
2022/05/19 07:20:45;;;;;;;5.80;3.97;;;;;;;16.90;42.31;99696.94;6134210;23;20018;-84
2022/05/19 07:23:24;;;;;;;15.40;9.98;;;;;;;16.89;42.15;99711.00;6084255;23;20463;-79
2022/05/19 07:25:53;;;;;;;11.15;6.57;;;;;;;16.87;42.60;99681.28;6082792;23;20055;-81
2022/05/19 07:28:28;;;;;;;12.40;8.50;;;;;;;17.25;42.83;99725.50;6107090;23;20080;-80
2022/05/19 07:31:07;;;;;;;8.35;4.15;;;;;;;17.54;42.55;99710.38;6160301;23;20045;-81
2022/05/19 07:33:35;;;;;;;6.50;3.92;;;;;;;17.72;42.65;99680.69;6159434;23;20013;-79
2022/05/19 07:36:06;;;;;;;5.00;2.95;;;;;;;18.13;41.62;99702.78;6132266;23;20052;-80
2022/05/19 07:38:34;;;;;;;3.67;2.97;;;;;;;17.65;41.29;99663.44;6105497;23;20021;-80
2022/05/19 07:41:00;;;;;;;6.45;3.22;;;;;;;18.00;42.15;99679.56;6161724;23;20014;-80
2022/05/19 07:43:39;;;;;;;5.88;3.20;;;;;;;18.58;42.11;99703.50;6132061;23;20028;-81
2022/05/19 07:46:37;;;;;;;5.85;3.45;;;;;;;19.21;41.69;99700.72;6134444;23;20019;-79
2022/05/19 07:49:05;;;;;;;5.18;3.63;;;;;;;19.79;40.98;99703.28;6159258;23;20013;-81
2022/05/19 07:51:36;;;;;;;7.25;4.53;;;;;;;19.83;40.69;99691.66;6109085;23;20021;-79
2022/05/19 07:54:17;;;;;;;6.07;4.13;;;;;;;19.94;40.30;99691.16;6133218;23;20017;-80
2022/05/19 07:56:48;;;;;;;5.68;4.10;;;;;;;19.61;40.20;99676.00;6082643;23;20017;-80
2022/05/19 07:59:15;;;;;;;6.13;4.20;;;;;;;19.22;40.92;99691.00;6132125;23;20029;-81
2022/05/19 08:01:44;;;;;;;7.35;3.72;;;;;;;19.02;40.88;99691.94;6130117;23;20047;-81
2022/05/19 08:04:17;;;;;;;6.57;4.53;;;;;;;18.76;41.61;99672.84;6131044;23;20037;-78
2022/05/19 08:06:49;;;;;;;5.90;4.60;;;;;;;18.95;41.47;99692.22;6131313;23;20041;-79
2022/05/19 08:15:35;;;;;;;5.65;3.75;;;;;;;18.31;40.74;99586.13;6153336;23;20021;-81
2022/05/19 08:18:14;;;;;;;5.80;4.10;;;;;;;18.71;41.42;99664.28;6103270;23;20017;-80
2022/05/19 08:20:51;;;;;;;45.88;30.15;;;;;;;18.54;41.78;99660.63;6103849;23;20022;-79
2022/05/19 08:23:31;;;;;;;29.05;18.63;;;;;;;18.29;41.92;99638.00;6160644;23;20028;-79
2022/05/19 08:25:57;;;;;;;10.40;6.75;;;;;;;18.39;42.08;99675.31;6159226;23;20017;-81
2022/05/19 08:28:30;;;;;;;25.75;16.23;;;;;;;17.74;42.54;99602.56;6127060;23;20088;-79
2022/05/19 08:31:06;;;;;;;24.73;16.35;;;;;;;18.21;43.20;99674.31;6127913;23;20017;-79
2022/05/19 08:33:33;;;;;;;17.50;11.73;;;;;;;18.31;43.42;99677.44;6153603;23;20017;-80
2022/05/19 08:35:59;;;;;;;24.70;15.40;;;;;;;18.37;43.12;99674.53;6128431;23;20025;-80
2022/05/19 08:38:28;;;;;;;6.07;4.55;;;;;;;18.46;42.93;99660.97;6135741;23;20017;-77
2022/05/19 08:41:01;;;;;;;20.00;13.38;;;;;;;18.97;42.56;99684.25;6131967;23;20122;-80
2022/05/19 08:43:35;;;;;;;22.55;15.27;;;;;;;19.13;42.01;99684.38;6110661;23;20017;-79
2022/05/19 08:46:04;;;;;;;17.98;11.65;;;;;;;19.25;41.56;99680.31;6159753;23;20017;-77
2022/05/19 08:48:30;;;;;;;14.48;8.27;;;;;;;19.30;41.14;99659.03;6158630;23;20021;-80
2022/05/19 08:50:58;;;;;;;21.17;15.57;;;;;;;19.38;40.93;99673.56;6131584;23;20048;-82
2022/05/19 08:53:28;;;;;;;19.58;13.77;;;;;;;19.24;40.60;99653.09;6133223;23;20100;-79
2022/05/19 08:56:00;;;;;;;42.25;27.15;;;;;;;19.61;40.91;99678.63;6109152;23;20021;-79
2022/05/19 08:58:29;;;;;;;17.42;10.23;;;;;;;20.29;40.81;99668.25;6157220;23;20017;-79
2022/05/19 09:01:02;;;;;;;14.15;9.10;;;;;;;21.24;39.50;99646.53;6160419;23;20024;-77
2022/05/19 09:03:39;;;;;;;7.50;5.28;;;;;;;22.46;37.46;99666.03;6109874;23;20021;-78
2022/05/19 09:06:30;;;;;;;15.80;11.27;;;;;;;22.57;35.98;99657.41;6134110;23;20021;-79
2022/05/19 09:09:02;;;;;;;;;;;;;;;22.34;36.28;99664.09;6159428;23;20460;-79
2022/05/19 09:11:38;;;;;;;5.57;4.45;;;;;;;21.81;36.24;99643.34;6134434;23;20044;-78
2022/05/19 09:14:27;;;;;;;15.32;10.82;;;;;;;21.35;36.69;99663.50;6162675;23;20023;-77
2022/05/19 09:17:00;;;;;;;15.90;11.05;;;;;;;21.11;37.08;99659.59;6140979;23;20029;-79
2022/05/19 09:19:51;;;;;;;6.22;4.43;;;;;;;21.06;36.30;99666.00;6153451;23;20064;-77
2022/05/19 09:22:23;;;;;;;6.88;5.25;;;;;;;20.97;36.12;99657.69;6179028;23;20005;-78
2022/05/19 09:24:50;;;;;;;;;;;;;;;21.27;35.89;99647.25;6155184;23;20009;-77
2022/05/19 09:27:19;;;;;;;8.80;3.70;;;;;;;21.55;35.36;99653.59;6180019;23;19896;-81
2022/05/19 09:29:58;;;;;;;10.80;5.82;;;;;;;21.95;34.83;99647.81;6139270;23;20109;-76
2022/05/19 09:32:34;;;;;;;5.53;3.15;;;;;;;22.40;33.66;99630.13;6161672;23;20028;-77
2022/05/19 09:35:11;;;;;;;5.00;2.60;;;;;;;22.78;32.84;99639.34;6089144;23;20354;-80
2022/05/19 09:37:44;;;;;;;14.07;9.32;;;;;;;23.26;32.72;99630.19;6155916;23;20452;-81
2022/05/19 09:40:17;;;;;;;10.70;6.47;;;;;;;23.79;31.66;99638.25;6132032;23;20410;-78
2022/05/19 09:42:53;;;;;;;6.95;4.50;;;;;;;24.39;30.79;99632.47;6131105;23;20337;-80
2022/05/19 09:45:26;;;;;;;6.22;3.70;;;;;;;24.44;29.96;99619.72;6132884;23;20048;-81
2022/05/19 09:48:00;;;;;;;6.93;4.25;;;;;;;24.33;30.42;99621.34;6164614;23;20017;-76
2022/05/19 09:50:31;;;;;;;6.22;3.83;;;;;;;24.47;30.56;99619.50;6136200;23;20351;-77
2022/05/19 09:53:04;;;;;;;8.07;3.40;;;;;;;25.32;30.03;99596.66;6112718;23;20359;-79
2022/05/19 09:55:31;;;;;;;7.00;3.55;;;;;;;26.93;27.78;99613.75;6108177;23;20013;-77
2022/05/19 09:58:02;;;;;;;8.90;3.78;;;;;;;27.96;26.96;99606.25;6131152;23;20403;-81
2022/05/19 10:00:45;;;;;;;8.45;5.05;;;;;;;29.07;25.88;99613.69;6131529;23;20017;-79
2022/05/19 10:03:24;;;;;;;8.98;4.57;;;;;;;30.23;24.56;99588.88;6132839;23;20072;-81
2022/05/19 10:05:58;;;;;;;18.23;12.70;;;;;;;31.46;23.84;99599.38;6129708;23;20021;-79
2022/05/19 10:08:24;;;;;;;3.67;2.80;;;;;;;32.08;22.01;99598.53;6129065;23;20028;-79
2022/05/19 10:11:00;;;;;;;6.10;3.00;;;;;;;31.68;22.23;99598.91;6081261;23;20017;-78
2022/05/19 10:13:36;;;;;;;5.22;4.18;;;;;;;31.17;22.18;99603.13;6104959;23;20020;-77
2022/05/19 10:16:30;;;;;;;13.75;10.02;;;;;;;30.03;22.48;99603.16;6080072;23;20121;-78
2022/05/19 10:19:05;;;;;;;9.40;7.32;;;;;;;29.63;22.82;99596.13;6137175;23;20013;-80
2022/05/19 10:21:51;;;;;;;5.60;4.63;;;;;;;29.36;22.76;99600.34;6157996;23;20045;-79
2022/05/19 10:24:42;;;;;;;20.58;15.32;;;;;;;30.20;22.23;99587.31;6107875;23;20010;-80
2022/05/19 10:33:29;;;;;;;17.98;13.27;;;;;;;27.20;23.69;99589.31;6130940;23;20014;-78
2022/05/19 10:36:31;;;;;;;4.22;3.00;;;;;;;26.52;24.33;99591.22;6136424;23;20026;-81
2022/05/19 10:39:35;;;;;;;18.25;12.95;;;;;;;25.69;24.52;99551.34;6114951;23;20044;-76
2022/05/19 10:42:31;;;;;;;22.33;18.23;;;;;;;25.45;25.24;99562.88;6163650;23;20120;-79
2022/05/19 10:45:17;;;;;;;6.60;5.30;;;;;;;25.19;25.85;99594.03;6092365;23;20018;-77
2022/05/19 10:48:01;;;;;;;35.80;26.33;;;;;;;24.95;26.01;99593.06;6117257;23;20022;-75
2022/05/19 10:50:31;;;;;;;12.68;8.80;;;;;;;25.12;26.34;99567.03;6158445;23;20022;-77
2022/05/19 10:52:58;;;;;;;4.80;2.75;;;;;;;25.20;25.92;99590.44;6139192;23;20028;-80
2022/05/19 10:55:45;;;;;;;8.15;6.40;;;;;;;24.71;26.44;99597.50;6165602;23;20032;-79
2022/05/19 10:58:51;;;;;;;13.38;8.40;;;;;;;24.66;26.50;99593.31;6112407;23;20013;-78
2022/05/19 11:01:27;;;;;;;4.03;2.40;;;;;;;24.61;26.47;99587.47;6132769;23;20450;-80
2022/05/19 11:04:23;;;;;;;5.35;4.05;;;;;;;24.62;26.62;99586.50;6110734;23;20014;-80
2022/05/19 11:06:58;;;;;;;7.57;4.15;;;;;;;24.46;26.43;99580.59;6136757;23;20027;-79
2022/05/19 11:09:45;;;;;;;2.50;2.28;;;;;;;24.06;26.53;99562.94;6161277;23;20088;-79
2022/05/19 11:12:35;;;;;;;4.97;2.92;;;;;;;23.79;26.99;99570.97;6134287;23;20021;-79
2022/05/19 11:15:30;;;;;;;12.48;8.25;;;;;;;23.52;27.51;99566.56;6156303;23;20443;-79
2022/05/19 11:18:08;;;;;;;18.85;12.43;;;;;;;23.44;27.34;99562.63;6131628;23;20033;-78
2022/05/19 11:20:54;;;;;;;11.43;7.05;;;;;;;23.25;27.33;99580.72;6157812;23;20075;-79
2022/05/19 11:23:34;;;;;;;3.75;2.10;;;;;;;22.91;27.61;99574.91;6155595;23;20400;-80
2022/05/19 11:26:24;;;;;;;7.88;5.35;;;;;;;22.54;28.18;99578.94;6155098;23;20102;-78
2022/05/19 11:28:56;;;;;;;5.68;4.88;;;;;;;22.12;28.77;99559.41;6131434;23;20021;-78
2022/05/19 11:31:39;;;;;;;4.47;2.05;;;;;;;21.94;29.39;99564.88;6157965;23;20359;-77
2022/05/19 11:34:25;;;;;;;9.43;5.75;;;;;;;21.72;29.04;99554.72;6157664;23;20021;-75
2022/05/19 11:37:15;;;;;;;19.77;14.68;;;;;;;21.87;29.37;99566.19;6128279;23;20028;-80
2022/05/19 11:40:00;;;;;;;4.78;2.85;;;;;;;22.00;29.17;99566.31;6129091;23;20021;-79
2022/05/19 11:42:39;;;;;;;13.10;9.80;;;;;;;21.95;29.23;99561.28;6156524;23;20021;-82
2022/05/19 11:45:12;;;;;;;5.95;3.65;;;;;;;21.73;28.91;99522.00;6108407;23;20014;-82
2022/05/19 11:56:40;;;;;;;31.42;20.73;;;;;;;21.32;29.50;99562.28;6137868;23;20022;-82
2022/05/19 11:59:10;;;;;;;12.05;7.85;;;;;;;20.98;30.16;99533.34;6107607;23;20013;-80
2022/05/19 12:01:46;;;;;;;25.08;18.45;;;;;;;20.84;30.49;99526.16;6156377;23;20017;-81
2022/05/19 12:04:27;;;;;;;5.97;3.55;;;;;;;20.79;30.74;99546.72;6134327;23;20024;-80
2022/05/19 12:07:17;;;;;;;14.75;11.27;;;;;;;20.74;31.32;99556.69;6105157;23;20021;-79
2022/05/19 12:09:59;;;;;;;11.00;7.45;;;;;;;20.64;31.30;99515.81;6159468;23;20375;-81
2022/05/19 12:12:46;;;;;;;5.65;3.20;;;;;;;20.76;30.88;99502.81;6133754;23;20028;-79
2022/05/19 12:15:23;;;;;;;7.68;2.78;;;;;;;20.65;31.09;99513.06;6134166;23;20087;-80
2022/05/19 12:18:27;;;;;;;4.43;2.53;;;;;;;20.44;31.36;99523.88;6105602;23;20033;-82
2022/05/19 12:21:15;;;;;;;5.10;2.15;;;;;;;20.31;31.29;99530.78;6133542;23;20013;-79
2022/05/19 12:23:43;;;;;;;4.95;2.05;;;;;;;20.30;31.39;99544.94;6106820;23;20358;-80
2022/05/19 12:26:23;;;;;;;7.30;4.97;;;;;;;19.50;31.19;99447.84;6114815;23;20045;-82
2022/05/19 12:29:23;;;;;;;5.72;3.92;;;;;;;19.86;31.37;99544.50;6132856;23;20021;-80
2022/05/19 12:32:21;;;;;;;13.93;9.80;;;;;;;19.42;31.54;99508.88;6134762;23;20083;-79